createdAt,value
2023-01-19T00:00:03.352Z,3.2
2023-01-19T00:01:13.042Z,3.3
2023-01-19T00:02:22.893Z,2.7
2023-01-19T00:03:31.539Z,2.1
2023-01-19T00:04:41.237Z,3.2
2023-01-19T00:05:50.018Z,2.2
2023-01-19T00:06:58.709Z,1.8
2023-01-19T00:08:08.441Z,2.5
2023-01-19T00:09:17.152Z,4.2
2023-01-19T00:10:26.868Z,2.4
2023-01-19T00:11:35.593Z,2.9
2023-01-19T00:12:44.314Z,2.7
2023-01-19T00:13:54.108Z,3.2
2023-01-19T00:15:03.767Z,3
2023-01-19T00:16:12.590Z,2.6
2023-01-19T00:17:22.208Z,3.1
2023-01-19T00:18:29.937Z,3
2023-01-19T00:19:38.679Z,2.8
2023-01-19T00:20:48.385Z,3
2023-01-19T00:21:57.095Z,3.1
2023-01-19T00:23:06.807Z,2.3
2023-01-19T00:24:14.505Z,3.2
2023-01-19T00:25:23.198Z,3.4
2023-01-19T00:26:32.952Z,2.5
2023-01-19T00:27:40.579Z,2.3
2023-01-19T00:28:50.335Z,2.2
2023-01-19T00:30:00.046Z,2.6
2023-01-19T00:31:07.810Z,2.1
2023-01-19T00:32:17.536Z,2.2
2023-01-19T00:33:25.254Z,2.1
2023-01-19T00:34:33.950Z,2.7
2023-01-19T00:35:43.691Z,2.5
2023-01-19T00:36:51.360Z,2.1
2023-01-19T00:38:00.135Z,2.9
2023-01-19T00:39:09.780Z,2.2
2023-01-19T00:40:17.484Z,2.3
2023-01-19T00:41:27.185Z,2
2023-01-19T00:42:34.929Z,1.8
2023-01-19T00:43:43.720Z,2.2
2023-01-19T00:44:53.340Z,1.7
2023-01-19T00:46:02.181Z,1.8
2023-01-19T00:47:11.782Z,1.8
2023-01-19T00:48:20.521Z,1.9
2023-01-19T00:49:28.239Z,1.5
2023-01-19T00:50:37.994Z,2
2023-01-19T00:51:45.703Z,2.1
2023-01-19T00:52:54.365Z,2.4
2023-01-19T00:54:04.091Z,2
2023-01-19T00:55:11.824Z,2.4
2023-01-19T00:56:21.533Z,2.4
2023-01-19T00:57:30.249Z,2.5
2023-01-19T00:58:40.001Z,2.2
2023-01-19T00:59:48.868Z,2.2
2023-01-19T01:00:56.633Z,2.3
2023-01-19T01:02:06.479Z,2.6
2023-01-19T01:03:14.163Z,2.3
2023-01-19T01:04:23.818Z,2.5
2023-01-19T01:05:33.598Z,3.6
2023-01-19T01:06:41.280Z,3.7
2023-01-19T01:07:50.996Z,1.9
2023-01-19T01:08:59.695Z,1.7
2023-01-19T01:10:08.403Z,2.4
2023-01-19T01:11:18.187Z,2.3
2023-01-19T01:12:27.899Z,2.5
2023-01-19T01:13:36.655Z,2
2023-01-19T01:14:46.366Z,1.9
2023-01-19T01:15:55.090Z,2.5
2023-01-19T01:17:04.907Z,2.8
2023-01-19T01:18:14.664Z,2.6
2023-01-19T01:19:22.632Z,1.6
2023-01-19T01:20:31.305Z,2.1
2023-01-19T01:21:39.047Z,2.7
2023-01-19T01:22:47.775Z,2
2023-01-19T01:23:57.541Z,2.1
2023-01-19T01:25:06.259Z,2.3
2023-01-19T01:26:40.942Z,2.1
2023-01-19T01:27:49.681Z,2
2023-01-19T01:28:58.376Z,3.4
2023-01-19T01:30:08.139Z,2.4
2023-01-19T01:31:15.878Z,1.9
2023-01-19T01:32:24.619Z,2.2
2023-01-19T01:33:40.330Z,1.7
2023-01-19T01:34:44.046Z,2.9
2023-01-19T01:35:53.787Z,2
2023-01-19T01:37:03.492Z,2.6
2023-01-19T01:38:11.239Z,2.3
2023-01-19T01:39:20.991Z,3
2023-01-19T01:40:29.649Z,2.1
2023-01-19T01:41:38.358Z,2
2023-01-19T01:42:48.122Z,2.4
2023-01-19T01:43:56.810Z,2
2023-01-19T01:45:06.677Z,1.8
2023-01-19T01:46:16.531Z,2
2023-01-19T01:47:24.099Z,2.4
2023-01-19T01:48:33.845Z,1.7
2023-01-19T01:49:42.580Z,2.2
2023-01-19T01:50:52.342Z,2.3
2023-01-19T01:52:02.087Z,2.3
2023-01-19T01:53:10.993Z,2.1
2023-01-19T01:54:20.524Z,2
2023-01-19T01:55:29.364Z,1.9
2023-01-19T01:56:37.139Z,2.6
2023-01-19T01:57:45.842Z,2.4
2023-01-19T01:58:53.620Z,2.5
2023-01-19T02:00:02.310Z,2.6
2023-01-19T02:01:11.119Z,2.3
2023-01-19T02:02:19.760Z,2.4
2023-01-19T02:03:29.602Z,3.2
2023-01-19T02:04:38.176Z,2.3
2023-01-19T02:05:46.899Z,2.4
2023-01-19T02:06:56.613Z,2.1
2023-01-19T02:08:04.328Z,2.1
2023-01-19T02:09:13.027Z,2.1
2023-01-19T02:10:22.723Z,2.1
2023-01-19T02:11:30.449Z,2.5
2023-01-19T02:12:40.125Z,1.9
2023-01-19T02:13:48.960Z,1.9
2023-01-19T02:14:57.638Z,2.1
2023-01-19T02:16:07.348Z,2.4
2023-01-19T02:17:15.022Z,1.9
2023-01-19T02:18:24.709Z,2.3
2023-01-19T02:19:34.435Z,1.8
2023-01-19T02:20:43.147Z,1.6
2023-01-19T02:21:52.879Z,1.8
2023-01-19T02:23:02.958Z,1.4
2023-01-19T02:24:10.231Z,1.5
2023-01-19T02:25:19.924Z,1.4
2023-01-19T02:26:28.638Z,1.7
2023-01-19T02:27:37.330Z,1.3
2023-01-19T02:28:46.994Z,1.3
2023-01-19T02:29:54.685Z,1.1
2023-01-19T02:31:03.462Z,1.6
2023-01-19T02:32:12.104Z,2.1
2023-01-19T02:33:20.790Z,1.9
2023-01-19T02:34:30.536Z,2.4
2023-01-19T02:35:38.253Z,2.1
2023-01-19T02:36:46.988Z,2.4
2023-01-19T02:37:56.709Z,2.2
2023-01-19T02:39:05.371Z,2.3
2023-01-19T02:40:15.111Z,1.9
2023-01-19T02:41:24.814Z,2
2023-01-19T02:42:33.592Z,1.5
2023-01-19T02:43:43.289Z,1.8
2023-01-19T02:44:52.004Z,1.3
2023-01-19T02:46:00.709Z,1.8
2023-01-19T02:47:10.422Z,2.1
2023-01-19T02:48:19.213Z,2.1
2023-01-19T02:49:28.932Z,1.6
2023-01-19T02:50:38.669Z,2.1
2023-01-19T02:51:46.400Z,1.7
2023-01-19T02:52:56.123Z,1.6
2023-01-19T02:54:05.917Z,1.4
2023-01-19T02:55:14.635Z,1.8
2023-01-19T02:56:22.324Z,2.2
2023-01-19T02:57:32.133Z,1.6
2023-01-19T02:58:41.830Z,1.3
2023-01-19T02:59:51.566Z,1.7
2023-01-19T03:01:01.383Z,1.3
2023-01-19T03:02:10.060Z,1.5
2023-01-19T03:03:19.753Z,1.3
2023-01-19T03:04:29.446Z,1.6
2023-01-19T03:05:37.165Z,1.9
2023-01-19T03:06:44.948Z,1.9
2023-01-19T03:07:54.616Z,1.9
2023-01-19T03:09:03.314Z,1.8
2023-01-19T03:10:13.045Z,2.3
2023-01-19T03:11:21.817Z,2.5
2023-01-19T03:12:30.523Z,2
2023-01-19T03:13:41.236Z,1.4
2023-01-19T03:14:48.904Z,1.9
2023-01-19T03:15:57.632Z,1.6
2023-01-19T03:17:06.303Z,1
2023-01-19T03:18:15.006Z,1.1
2023-01-19T03:19:24.740Z,1.3
2023-01-19T03:20:33.485Z,0.7
2023-01-19T03:21:41.188Z,1
2023-01-19T03:22:50.907Z,0.8
2023-01-19T03:23:59.607Z,1.2
2023-01-19T03:25:09.336Z,1.1
2023-01-19T03:26:19.141Z,1
2023-01-19T03:27:26.849Z,0.8
2023-01-19T03:28:36.579Z,0.8
2023-01-19T03:29:45.265Z,1.4
2023-01-19T03:30:52.969Z,1.7
2023-01-19T03:32:02.668Z,1.5
2023-01-19T03:33:10.384Z,1.5
2023-01-19T03:34:19.146Z,1.4
2023-01-19T03:35:28.808Z,1.5
2023-01-19T03:36:36.494Z,1.5
2023-01-19T03:37:46.189Z,2.8
2023-01-19T03:38:55.886Z,1.8
2023-01-19T03:40:04.652Z,2.7
2023-01-19T03:41:14.332Z,2.1
2023-01-19T03:42:24.060Z,1.4
2023-01-19T03:43:33.756Z,1.3
2023-01-19T03:44:43.469Z,1.6
2023-01-19T03:45:51.232Z,1.5
2023-01-19T03:46:59.894Z,2
2023-01-19T03:48:08.610Z,2.5
2023-01-19T03:49:16.306Z,2.6
2023-01-19T03:50:26.032Z,2.2
2023-01-19T03:51:33.805Z,2.1
2023-01-19T03:52:43.519Z,3.3
2023-01-19T03:53:53.218Z,3.3
2023-01-19T03:55:01.897Z,2.3
2023-01-19T03:56:11.621Z,2.9
2023-01-19T03:57:20.344Z,2.5
2023-01-19T03:58:29.087Z,3
2023-01-19T03:59:38.840Z,2.4
2023-01-19T04:00:46.541Z,3.1
2023-01-19T04:01:55.267Z,2.6
2023-01-19T04:03:05.258Z,3.8
2023-01-19T04:04:13.664Z,2.4
2023-01-19T04:05:23.387Z,2.2
2023-01-19T04:06:32.115Z,2
2023-01-19T04:07:40.794Z,1.7
2023-01-19T04:08:50.555Z,2.3
2023-01-19T04:09:59.249Z,2.2
2023-01-19T04:11:08.997Z,1.6
2023-01-19T04:12:18.751Z,1.4
2023-01-19T04:13:28.444Z,1.8
2023-01-19T04:14:38.188Z,1.7
2023-01-19T04:15:46.872Z,1.3
2023-01-19T04:16:55.529Z,2.3
2023-01-19T04:18:05.221Z,1.7
2023-01-19T04:19:14.903Z,1.9
2023-01-19T04:20:23.598Z,2.5
2023-01-19T04:21:33.294Z,2.1
2023-01-19T04:22:41.985Z,1.8
2023-01-19T04:23:51.682Z,1.3
2023-01-19T04:25:00.357Z,1.8
2023-01-19T04:26:09.067Z,1.4
2023-01-19T04:27:18.841Z,1.4
2023-01-19T04:28:28.560Z,1.4
2023-01-19T04:29:37.261Z,1.3
2023-01-19T04:30:46.956Z,1.3
2023-01-19T04:31:54.727Z,1.6
2023-01-19T04:33:04.498Z,1.6
2023-01-19T04:34:13.264Z,1.9
2023-01-19T04:35:20.947Z,1.4
2023-01-19T04:36:30.679Z,1.5
2023-01-19T04:37:38.451Z,1.7
2023-01-19T04:38:48.167Z,1.5
2023-01-19T04:39:56.857Z,1.6
2023-01-19T04:41:04.559Z,2.1
2023-01-19T04:42:14.258Z,1.9
2023-01-19T04:43:22.999Z,1.5
2023-01-19T04:44:30.726Z,1.6
2023-01-19T04:45:40.387Z,1.8
2023-01-19T04:46:49.160Z,1.6
2023-01-19T04:47:57.856Z,1.7
2023-01-19T04:49:07.598Z,1.8
2023-01-19T04:50:16.307Z,1.6
2023-01-19T04:51:26.043Z,1.3
2023-01-19T04:52:34.699Z,1.1
2023-01-19T04:53:44.391Z,1.7
2023-01-19T04:54:53.098Z,2
2023-01-19T04:56:01.774Z,1.4
2023-01-19T04:57:11.479Z,1.3
2023-01-19T04:58:19.180Z,1.5
2023-01-19T04:59:27.872Z,1.8
2023-01-19T05:00:37.583Z,1.7
2023-01-19T05:01:46.319Z,2.5
2023-01-19T05:02:56.071Z,2.4
2023-01-19T05:04:04.718Z,2.7
2023-01-19T05:05:12.440Z,1.8
2023-01-19T05:06:22.156Z,4.1
2023-01-19T05:07:29.881Z,3.6
2023-01-19T05:08:39.651Z,5.9
2023-01-19T05:09:49.348Z,3.9
2023-01-19T05:10:57.039Z,2.3
2023-01-19T05:12:06.765Z,3.3
2023-01-19T05:13:15.462Z,4.9
2023-01-19T05:14:23.170Z,4.3
2023-01-19T05:15:32.961Z,4.2
2023-01-19T05:16:41.640Z,3.1
2023-01-19T05:17:50.409Z,3.5
2023-01-19T05:19:00.225Z,3.1
2023-01-19T05:20:08.948Z,3.1
2023-01-19T05:21:18.644Z,3.1
2023-01-19T05:22:27.425Z,3.8
2023-01-19T05:23:37.143Z,2.1
2023-01-19T05:24:48.187Z,2
2023-01-19T05:25:55.850Z,1.7
2023-01-19T05:27:05.567Z,1.9
2023-01-19T05:28:15.265Z,1.5
2023-01-19T05:29:22.975Z,1.9
2023-01-19T05:30:32.676Z,2.3
2023-01-19T05:31:42.412Z,1.4
2023-01-19T05:32:50.132Z,1.6
2023-01-19T05:33:59.827Z,2.1
2023-01-19T05:35:08.578Z,1.6
2023-01-19T05:36:17.241Z,2.4
2023-01-19T05:37:26.995Z,1.8
2023-01-19T05:38:36.683Z,2.1
2023-01-19T05:39:46.395Z,1.9
2023-01-19T05:40:55.182Z,2.1
2023-01-19T05:42:04.977Z,2.1
2023-01-19T05:43:14.562Z,1.5
2023-01-19T05:44:23.252Z,2.3
2023-01-19T05:45:32.996Z,1.9
2023-01-19T05:46:42.811Z,1.6
2023-01-19T05:47:50.508Z,1.7
2023-01-19T05:49:00.215Z,2.1
2023-01-19T05:50:08.899Z,1.5
2023-01-19T05:51:17.590Z,2
2023-01-19T05:52:27.329Z,1.8
2023-01-19T05:53:36.164Z,1.9
2023-01-19T05:54:44.885Z,1.3
2023-01-19T05:55:54.563Z,2
2023-01-19T05:57:03.270Z,1.9
2023-01-19T05:58:13.073Z,1.9
2023-01-19T05:59:22.770Z,1.9
2023-01-19T06:00:31.472Z,1.6
2023-01-19T06:01:41.278Z,2.3
2023-01-19T06:02:48.992Z,1.8
2023-01-19T06:03:56.733Z,1.7
2023-01-19T06:05:06.508Z,1.8
2023-01-19T06:06:15.221Z,1.6
2023-01-19T06:07:25.472Z,1.6
2023-01-19T06:08:35.647Z,2.1
2023-01-19T06:09:43.407Z,2.5
2023-01-19T06:10:53.131Z,2
2023-01-19T06:12:00.841Z,1.8
2023-01-19T06:13:09.569Z,2.5
2023-01-19T06:14:18.268Z,2
2023-01-19T06:15:25.980Z,2
2023-01-19T06:16:35.747Z,1.8
2023-01-19T06:17:44.393Z,1.7
2023-01-19T06:18:53.091Z,1.7
2023-01-19T06:20:02.841Z,2.2
2023-01-19T06:21:11.578Z,1.8
2023-01-19T06:22:20.269Z,2.5
2023-01-19T06:23:30.132Z,2.3
2023-01-19T06:24:37.666Z,1.8
2023-01-19T06:25:47.383Z,1.8
2023-01-19T06:26:56.070Z,1.9
2023-01-19T06:28:04.758Z,1.9
2023-01-19T06:29:14.466Z,1.8
2023-01-19T06:30:22.154Z,2.3
2023-01-19T06:31:30.936Z,2.1
2023-01-19T06:32:40.606Z,1.8
2023-01-19T06:33:49.304Z,3
2023-01-19T06:34:59.026Z,2.9
2023-01-19T06:36:08.736Z,2.2
2023-01-19T06:37:16.467Z,2.1
2023-01-19T06:38:26.238Z,2.1
2023-01-19T06:39:34.913Z,2.8
2023-01-19T06:40:43.599Z,1.6
2023-01-19T06:41:53.300Z,1.6
2023-01-19T06:43:02.331Z,2.1
2023-01-19T06:44:11.787Z,2
2023-01-19T06:45:20.476Z,2.1
2023-01-19T06:46:28.241Z,1.4
2023-01-19T06:47:37.905Z,1.7
2023-01-19T06:48:45.590Z,1.8
2023-01-19T06:49:54.299Z,2.2
2023-01-19T06:51:04.009Z,1.9
2023-01-19T06:52:12.661Z,2.1
2023-01-19T06:53:22.382Z,1.7
2023-01-19T06:54:31.069Z,2.2
2023-01-19T06:55:40.894Z,1.9
2023-01-19T06:56:49.522Z,1.8
2023-01-19T06:57:57.234Z,2.2
2023-01-19T06:59:06.919Z,2.3
2023-01-19T07:00:15.663Z,2
2023-01-19T07:01:25.484Z,2.2
2023-01-19T07:02:35.320Z,2.5
2023-01-19T07:03:42.827Z,2.1
2023-01-19T07:04:52.559Z,2
2023-01-19T07:06:01.330Z,2.3
2023-01-19T07:07:10.058Z,2
2023-01-19T07:08:19.788Z,1.9
2023-01-19T07:09:28.452Z,2.5
2023-01-19T07:11:21.351Z,2.7
2023-01-19T07:11:48.815Z,2.4
2023-01-19T07:12:59.026Z,2.9
2023-01-19T07:14:08.273Z,2.8
2023-01-19T07:15:16.959Z,2
2023-01-19T07:16:24.705Z,2.1
2023-01-19T07:17:34.381Z,2.1
2023-01-19T07:18:43.100Z,2.2
2023-01-19T07:19:51.801Z,3.2
2023-01-19T07:21:01.510Z,2.9
2023-01-19T07:22:10.221Z,1.9
2023-01-19T07:23:19.925Z,1.5
2023-01-19T07:24:28.637Z,3.5
2023-01-19T07:25:36.346Z,4.8
2023-01-19T07:26:46.082Z,2.2
2023-01-19T07:27:54.817Z,2.2
2023-01-19T07:29:03.491Z,2.2
2023-01-19T07:30:13.281Z,2.3
2023-01-19T07:31:22.196Z,2
2023-01-19T07:32:31.719Z,1.9
2023-01-19T07:33:40.435Z,2
2023-01-19T07:34:48.187Z,2.7
2023-01-19T07:35:57.909Z,1.8
2023-01-19T07:37:06.624Z,2.3
2023-01-19T07:38:16.316Z,2
2023-01-19T07:39:26.012Z,1.9
2023-01-19T07:40:34.757Z,1.9
2023-01-19T07:41:44.500Z,1.8
2023-01-19T07:42:53.230Z,1.6
2023-01-19T07:44:02.025Z,1.9
2023-01-19T07:45:11.714Z,2.1
2023-01-19T07:46:19.520Z,1.4
2023-01-19T07:47:28.186Z,2.3
2023-01-19T07:48:37.942Z,1.8
2023-01-19T07:49:46.655Z,2
2023-01-19T07:50:56.443Z,1.8
2023-01-19T07:52:05.257Z,2.1
2023-01-19T07:53:13.964Z,2.1
2023-01-19T07:54:23.691Z,2
2023-01-19T07:55:31.402Z,2.5
2023-01-19T07:56:40.162Z,2.1
2023-01-19T07:57:49.885Z,2.2
2023-01-19T07:58:58.621Z,1.9
2023-01-19T08:00:08.484Z,1.8
2023-01-19T08:01:17.234Z,1.9
2023-01-19T08:02:24.906Z,1.9
2023-01-19T08:03:34.606Z,1.8
2023-01-19T08:04:42.406Z,2.6
2023-01-19T08:05:52.193Z,2.3
2023-01-19T08:07:01.922Z,2.1
2023-01-19T08:08:09.691Z,2.2
2023-01-19T08:09:19.416Z,2.2
2023-01-19T08:10:29.197Z,1.5
2023-01-19T08:11:37.926Z,2.1
2023-01-19T08:12:47.637Z,2.7
2023-01-19T08:13:56.350Z,2
2023-01-19T08:15:05.124Z,2.8
2023-01-19T08:16:14.941Z,2.7
2023-01-19T08:17:22.721Z,1.7
2023-01-19T08:18:32.410Z,1.9
2023-01-19T08:19:42.151Z,1.5
2023-01-19T08:20:50.844Z,2.3
2023-01-19T08:22:00.605Z,1.9
2023-01-19T08:23:08.312Z,2.5
2023-01-19T08:24:18.106Z,2.9
2023-01-19T08:25:27.763Z,3.4
2023-01-19T08:26:35.489Z,3.3
2023-01-19T08:27:45.236Z,3.6
2023-01-19T08:28:54.007Z,3.2
2023-01-19T08:30:01.677Z,3.4
2023-01-19T08:31:20.320Z,2
2023-01-19T08:32:21.258Z,2.2
2023-01-19T08:33:29.859Z,2.4
2023-01-19T08:34:39.652Z,2.4
2023-01-19T08:35:47.389Z,2.1
2023-01-19T08:36:57.078Z,2.3
2023-01-19T08:38:04.774Z,1.4
2023-01-19T08:39:12.508Z,1.8
2023-01-19T08:40:22.265Z,1.5
2023-01-19T08:41:30.906Z,1.7
2023-01-19T08:42:39.612Z,2
2023-01-19T08:43:49.290Z,1.6
2023-01-19T08:44:59.037Z,1.6
2023-01-19T08:46:08.799Z,1.6
2023-01-19T08:47:18.484Z,2
2023-01-19T08:48:27.201Z,1.8
2023-01-19T08:49:36.846Z,2.3
2023-01-19T08:50:45.686Z,2.6
2023-01-19T08:51:55.386Z,3.2
2023-01-19T08:53:03.379Z,2.3
2023-01-19T08:54:11.755Z,2.5
2023-01-19T08:55:21.473Z,2.9
2023-01-19T08:56:29.221Z,2.9
2023-01-19T08:57:38.920Z,3
2023-01-19T08:58:53.592Z,3
2023-01-19T08:59:56.286Z,2.7
2023-01-19T09:01:05.995Z,2.8
2023-01-19T09:02:14.710Z,2.8
2023-01-19T09:03:23.569Z,3.1
2023-01-19T09:04:33.226Z,2
2023-01-19T09:05:41.879Z,2.8
2023-01-19T09:06:51.610Z,2.5
2023-01-19T09:08:01.862Z,2.3
2023-01-19T09:09:09.112Z,2.7
2023-01-19T09:10:18.808Z,2.3
2023-01-19T09:11:26.509Z,2.4
2023-01-19T09:12:35.219Z,2.2
2023-01-19T09:13:44.944Z,2.2
2023-01-19T09:14:52.631Z,2.3
2023-01-19T09:16:02.406Z,1.8
2023-01-19T09:17:11.074Z,2.3
2023-01-19T09:18:19.776Z,2.5
2023-01-19T09:19:29.484Z,2.2
2023-01-19T09:20:38.286Z,1.5
2023-01-19T09:21:46.975Z,1.9
2023-01-19T09:22:56.723Z,2.7
2023-01-19T09:24:05.518Z,2.3
2023-01-19T09:25:15.251Z,2.4
2023-01-19T09:26:23.947Z,2
2023-01-19T09:27:32.670Z,1.6
2023-01-19T09:28:42.373Z,1.5
2023-01-19T09:29:50.066Z,2.2
2023-01-19T09:30:59.957Z,1.7
2023-01-19T09:32:09.591Z,2.3
2023-01-19T09:33:18.279Z,2.2
2023-01-19T09:34:27.962Z,1.8
2023-01-19T09:35:36.670Z,1.9
2023-01-19T09:36:45.438Z,1.9
2023-01-19T09:37:55.158Z,2.1
2023-01-19T09:39:02.835Z,2.5
2023-01-19T09:40:11.521Z,1.9
2023-01-19T09:41:21.218Z,2.2
2023-01-19T09:42:30.021Z,2
2023-01-19T09:43:39.717Z,2.3
2023-01-19T09:44:48.411Z,2.5
2023-01-19T09:45:57.158Z,2.1
2023-01-19T09:47:05.854Z,2.3
2023-01-19T09:48:13.579Z,2.4
2023-01-19T09:49:22.317Z,2.3
2023-01-19T09:50:32.043Z,1.8
2023-01-19T09:51:40.730Z,2.2
2023-01-19T09:52:50.466Z,2.2
2023-01-19T09:53:59.214Z,2.4
2023-01-19T09:55:08.877Z,1.7
2023-01-19T09:56:18.671Z,1.9
2023-01-19T09:57:26.357Z,2.5
2023-01-19T09:58:36.070Z,1.9
2023-01-19T09:59:44.755Z,2.5
2023-01-19T10:00:53.626Z,2.4
2023-01-19T10:02:03.195Z,2.4
2023-01-19T10:03:11.928Z,2.9
2023-01-19T10:04:19.620Z,1.7
2023-01-19T10:05:29.338Z,2.6
2023-01-19T10:06:37.024Z,1.5
2023-01-19T10:07:45.719Z,2
2023-01-19T10:08:55.431Z,2.1
2023-01-19T10:10:04.126Z,2
2023-01-19T10:11:12.883Z,2.1
2023-01-19T10:12:22.558Z,2.4
2023-01-19T10:13:31.251Z,1.7
2023-01-19T10:14:40.965Z,1.7
2023-01-19T10:15:48.691Z,1.8
2023-01-19T10:16:58.376Z,1.7
2023-01-19T10:18:08.055Z,2.4
2023-01-19T10:19:15.727Z,2.7
2023-01-19T10:20:25.431Z,2.4
2023-01-19T10:21:33.123Z,1.7
2023-01-19T10:22:41.906Z,1.9
2023-01-19T10:23:51.714Z,1.7
2023-01-19T10:25:00.425Z,2
2023-01-19T10:26:09.102Z,1.4
2023-01-19T10:27:18.811Z,2.1
2023-01-19T10:28:26.544Z,2
2023-01-19T10:29:36.209Z,2
2023-01-19T10:30:45.967Z,2.1
2023-01-19T10:31:54.646Z,2
2023-01-19T10:33:03.772Z,1.5
2023-01-19T10:34:11.070Z,1.4
2023-01-19T10:35:19.699Z,1.3
2023-01-19T10:36:29.465Z,1.6
2023-01-19T10:37:38.099Z,1.4
2023-01-19T10:38:47.831Z,1.9
2023-01-19T10:39:56.484Z,2
2023-01-19T10:41:05.299Z,2.5
2023-01-19T10:42:13.934Z,1.5
2023-01-19T10:43:22.639Z,1.8
2023-01-19T10:44:32.312Z,1.9
2023-01-19T10:45:42.045Z,1.8
2023-01-19T10:46:50.749Z,1.7
2023-01-19T10:48:00.425Z,2.2
2023-01-19T10:49:09.267Z,2.5
2023-01-19T10:50:19.123Z,2.1
2023-01-19T10:51:27.742Z,2
2023-01-19T10:52:37.445Z,1.3
2023-01-19T10:53:47.142Z,1.2
2023-01-19T10:54:55.945Z,1.6
2023-01-19T10:56:04.625Z,1.8
2023-01-19T10:57:14.297Z,2
2023-01-19T10:58:23.016Z,1.9
2023-01-19T10:59:32.730Z,2.5
2023-01-19T11:00:41.453Z,2.3
2023-01-19T11:01:50.212Z,2.3
2023-01-19T11:03:00.322Z,2.5
2023-01-19T11:04:07.444Z,2
2023-01-19T11:05:16.117Z,2.2
2023-01-19T11:06:25.813Z,2.7
2023-01-19T11:07:33.520Z,2.7
2023-01-19T11:08:43.274Z,2.9
2023-01-19T11:09:52.962Z,2.4
2023-01-19T11:11:02.835Z,2.5
2023-01-19T11:12:12.540Z,2.9
2023-01-19T11:13:21.246Z,3.3
2023-01-19T11:14:30.962Z,3.2
2023-01-19T11:15:40.779Z,3.3
2023-01-19T11:16:49.461Z,3.2
2023-01-19T11:17:59.136Z,3.3
2023-01-19T11:19:07.813Z,3.3
2023-01-19T11:20:15.541Z,3.4
2023-01-19T11:21:25.939Z,3
2023-01-19T11:22:33.964Z,2.5
2023-01-19T11:23:43.754Z,1.7
2023-01-19T11:24:53.459Z,2
2023-01-19T11:26:02.149Z,1.4
2023-01-19T11:27:11.854Z,1.2
2023-01-19T11:28:20.527Z,1
2023-01-19T11:29:30.235Z,1.2
2023-01-19T11:30:39.937Z,1.2
2023-01-19T11:31:47.698Z,1.5
2023-01-19T11:32:56.373Z,1.4
2023-01-19T11:34:06.069Z,1.4
2023-01-19T11:35:15.254Z,1.8
2023-01-19T11:36:26.869Z,1.3
2023-01-19T11:37:40.945Z,1.5
2023-01-19T11:38:53.303Z,1.3
2023-01-19T11:40:05.715Z,1.3
2023-01-19T11:41:18.952Z,1.1
2023-01-19T11:42:31.455Z,1.4
2023-01-19T11:43:49.167Z,1.6
2023-01-19T11:44:56.515Z,1.5
2023-01-19T11:46:07.336Z,1.8
2023-01-19T11:47:16.435Z,1.5
2023-01-19T11:48:25.367Z,1.8
2023-01-19T11:49:36.057Z,1.5
2023-01-19T11:50:46.280Z,1.1
2023-01-19T11:51:57.293Z,1.1
2023-01-19T11:53:08.035Z,1.5
2023-01-19T11:54:18.572Z,1.2
2023-01-19T11:55:29.154Z,1.8
2023-01-19T11:56:41.236Z,1.3
2023-01-19T11:57:54.356Z,1.4
2023-01-19T11:59:03.385Z,1.1
2023-01-19T12:00:13.157Z,1.6
2023-01-19T12:01:22.583Z,2.2
2023-01-19T12:02:35.001Z,1.3
2023-01-19T12:03:46.994Z,1.7
2023-01-19T12:04:59.633Z,1.2
2023-01-19T12:06:11.690Z,2.1
2023-01-19T12:07:23.512Z,1.9
2023-01-19T12:08:35.029Z,1.9
2023-01-19T12:09:43.483Z,2.1
2023-01-19T12:10:51.181Z,1
2023-01-19T12:12:00.920Z,0.9
2023-01-19T12:13:10.315Z,1.4
2023-01-19T12:14:20.436Z,1.6
2023-01-19T12:15:31.142Z,1.5
2023-01-19T12:16:38.891Z,1.9
2023-01-19T12:17:47.568Z,2
2023-01-19T12:18:59.532Z,1.5
2023-01-19T12:20:08.804Z,1.8
2023-01-19T12:21:18.653Z,1.3
2023-01-19T12:22:26.356Z,1.5
2023-01-19T12:23:39.032Z,1.5
2023-01-19T12:24:50.685Z,0.9
2023-01-19T12:26:01.957Z,1.6
2023-01-19T12:27:13.139Z,2
2023-01-19T12:28:24.577Z,1.5
2023-01-19T12:29:37.142Z,1.1
2023-01-19T12:30:50.011Z,2
2023-01-19T12:32:01.296Z,2.9
2023-01-19T12:33:11.944Z,1.2
2023-01-19T12:34:23.602Z,1.9
2023-01-19T12:35:32.017Z,1.2
2023-01-19T12:36:43.260Z,1.7
2023-01-19T12:37:53.579Z,1.4
2023-01-19T12:39:05.665Z,2.5
2023-01-19T12:40:15.620Z,1.6
2023-01-19T12:41:23.890Z,2
2023-01-19T12:42:32.614Z,1.2
2023-01-19T12:43:45.447Z,1.3
2023-01-19T12:44:55.803Z,1.3
2023-01-19T12:46:05.568Z,2.5
2023-01-19T12:47:16.468Z,2.6
2023-01-19T12:48:27.487Z,2.3
2023-01-19T12:49:39.659Z,1.5
2023-01-19T12:50:50.820Z,1.3
2023-01-19T12:52:02.102Z,1.6
2023-01-19T12:53:12.988Z,1.1
2023-01-19T12:54:23.590Z,0.9
2023-01-19T12:55:34.717Z,1.3
2023-01-19T12:56:44.422Z,1.2
2023-01-19T12:57:55.662Z,1.8
2023-01-19T12:59:08.048Z,1.8
2023-01-19T13:00:20.295Z,2.1
2023-01-19T13:01:31.289Z,2
2023-01-19T13:02:41.706Z,2.3
2023-01-19T13:03:53.994Z,2.3
2023-01-19T13:05:04.905Z,1.7
2023-01-19T13:06:17.370Z,1.6
2023-01-19T13:07:27.071Z,1.3
2023-01-19T13:08:36.318Z,1.7
2023-01-19T13:09:46.605Z,1.3
2023-01-19T13:10:57.088Z,1.2
2023-01-19T13:12:06.999Z,1.1
2023-01-19T13:13:17.649Z,1.4
2023-01-19T13:14:27.560Z,1.3
2023-01-19T13:15:37.957Z,1.6
2023-01-19T13:16:48.258Z,1.1
2023-01-19T13:17:58.272Z,1.1
2023-01-19T13:19:08.311Z,1.1
2023-01-19T13:20:20.030Z,1.4
2023-01-19T13:21:28.306Z,1.6
2023-01-19T13:22:37.521Z,1.5
2023-01-19T13:23:47.805Z,1.6
2023-01-19T13:24:58.407Z,1.4
2023-01-19T13:26:08.634Z,1.5
2023-01-19T13:27:20.371Z,1.2
2023-01-19T13:28:29.351Z,1.2
2023-01-19T13:29:41.226Z,1.3
2023-01-19T13:30:49.975Z,1.4
2023-01-19T13:32:03.355Z,1.8
2023-01-19T13:33:15.429Z,1.4
2023-01-19T13:34:23.126Z,1.3
2023-01-19T13:35:32.874Z,1.5
2023-01-19T13:36:42.571Z,0.8
2023-01-19T13:37:50.247Z,1.4
2023-01-19T13:38:59.960Z,1.2
2023-01-19T13:40:07.703Z,0.9
2023-01-19T13:41:16.468Z,1.2
2023-01-19T13:42:26.153Z,1.1
2023-01-19T13:43:33.853Z,0.9
2023-01-19T13:44:43.584Z,1.1
2023-01-19T13:45:53.666Z,1
2023-01-19T13:47:00.946Z,1.6
2023-01-19T13:48:10.671Z,0.8
2023-01-19T13:49:19.371Z,1.2
2023-01-19T13:50:28.116Z,1.2
2023-01-19T13:51:37.821Z,1
2023-01-19T13:52:46.531Z,1.3
2023-01-19T13:53:56.262Z,1
2023-01-19T13:55:06.258Z,0.9
2023-01-19T13:56:14.652Z,1
2023-01-19T13:57:24.402Z,1.2
2023-01-19T13:58:33.071Z,1.1
2023-01-19T13:59:42.767Z,2.6
2023-01-19T14:00:52.541Z,1.1
2023-01-19T14:02:01.301Z,1
2023-01-19T14:03:11.025Z,1.4
2023-01-19T14:04:20.653Z,1.3
2023-01-19T14:05:28.319Z,1.2
2023-01-19T14:06:38.017Z,1
2023-01-19T14:07:46.810Z,1.4
2023-01-19T14:08:56.451Z,1.2
2023-01-19T14:10:06.469Z,1.2
2023-01-19T14:11:13.868Z,1.5
2023-01-19T14:12:22.621Z,1.5
2023-01-19T14:13:31.341Z,1.2
2023-01-19T14:14:39.088Z,1.6
2023-01-19T14:15:47.834Z,1.1
2023-01-19T14:16:55.567Z,1
2023-01-19T14:18:04.270Z,1.2
2023-01-19T14:19:12.981Z,1.3
2023-01-19T14:20:21.733Z,1
2023-01-19T14:21:31.405Z,1.2
2023-01-19T14:22:40.123Z,1.6
2023-01-19T14:23:48.828Z,1.2
2023-01-19T14:24:58.515Z,2.2
2023-01-19T14:26:06.235Z,1.3
2023-01-19T14:27:16.050Z,1.2
2023-01-19T14:28:25.739Z,1.2
2023-01-19T14:29:34.447Z,1.3
2023-01-19T14:30:44.211Z,1.2
2023-01-19T14:31:52.862Z,1.3
2023-01-19T14:33:01.607Z,1.1
2023-01-19T14:34:11.328Z,1.2
2023-01-19T14:35:19.025Z,1
2023-01-19T14:36:28.807Z,0.8
2023-01-19T14:37:38.505Z,1.3
2023-01-19T14:38:47.208Z,1.6
2023-01-19T14:39:56.915Z,1.1
2023-01-19T14:41:06.619Z,1.2
2023-01-19T14:42:17.503Z,1.1
2023-01-19T14:43:27.081Z,1.1
2023-01-19T14:44:34.763Z,1
2023-01-19T14:45:44.471Z,1
2023-01-19T14:46:52.153Z,1
2023-01-19T14:48:00.878Z,1.2
2023-01-19T14:49:10.586Z,0.8
2023-01-19T14:50:19.285Z,1.1
2023-01-19T14:51:28.994Z,1.1
2023-01-19T14:52:38.753Z,1.3
2023-01-19T14:53:46.376Z,1.1
2023-01-19T14:54:56.081Z,1.2
2023-01-19T14:56:04.774Z,1.1
2023-01-19T14:57:13.468Z,0.9
2023-01-19T14:58:23.192Z,1.2
2023-01-19T14:59:30.885Z,1.2
2023-01-19T15:00:40.644Z,1.3
2023-01-19T15:01:50.408Z,1.7
2023-01-19T15:03:02.328Z,1.4
2023-01-19T15:04:12.160Z,2
2023-01-19T15:05:23.455Z,1.4
2023-01-19T15:06:37.142Z,1.6
2023-01-19T15:07:54.466Z,1.7
2023-01-19T15:09:05.586Z,1.6
2023-01-19T15:10:17.208Z,1.2
2023-01-19T15:11:26.933Z,1
2023-01-19T15:12:35.627Z,0.9
2023-01-19T15:13:45.332Z,1
2023-01-19T15:14:55.033Z,1.2
2023-01-19T15:16:03.818Z,0.9
2023-01-19T15:17:13.467Z,1.1
2023-01-19T15:18:23.153Z,0.9
2023-01-19T15:19:32.843Z,1.1
2023-01-19T15:20:42.530Z,0.9
2023-01-19T15:21:50.232Z,1.2
2023-01-19T15:22:59.974Z,1.1
2023-01-19T15:24:08.633Z,1.1
2023-01-19T15:25:19.165Z,1.2
2023-01-19T15:26:28.954Z,1.1
2023-01-19T15:27:36.750Z,1
2023-01-19T15:28:46.473Z,1
2023-01-19T15:29:56.133Z,1.3
2023-01-19T15:31:05.867Z,1.1
2023-01-19T15:32:15.527Z,1.2
2023-01-19T15:33:24.263Z,1
2023-01-19T15:34:33.967Z,1.3
2023-01-19T15:35:43.641Z,1.3
2023-01-19T15:36:53.337Z,1.2
2023-01-19T15:38:03.038Z,1.4
2023-01-19T15:39:11.744Z,1.1
2023-01-19T15:40:20.475Z,1.1
2023-01-19T15:41:30.224Z,1.3
2023-01-19T15:42:37.887Z,1.3
2023-01-19T15:43:47.575Z,1.1
2023-01-19T15:44:57.321Z,1.2
2023-01-19T15:46:07.132Z,1
2023-01-19T15:47:15.750Z,1.1
2023-01-19T15:48:24.433Z,1.3
2023-01-19T15:49:33.420Z,1
2023-01-19T15:50:42.864Z,1.1
2023-01-19T15:51:52.574Z,1.1
2023-01-19T15:53:02.302Z,1.2
2023-01-19T15:54:12.062Z,1.3
2023-01-19T15:55:19.731Z,1.1
2023-01-19T15:56:29.423Z,0.9
2023-01-19T15:57:38.120Z,1.2
2023-01-19T15:58:46.819Z,1
2023-01-19T15:59:56.513Z,0.9
2023-01-19T16:01:04.507Z,1.4